createdAt,value
2022-11-07T00:01:53.396Z,3.80
2022-11-07T00:04:21.958Z,3.87
2022-11-07T00:06:50.375Z,3.80
2022-11-07T00:09:19.774Z,4.40
2022-11-07T00:11:48.151Z,4.13
2022-11-07T00:14:18.169Z,4.20
2022-11-07T00:16:47.573Z,4.50
2022-11-07T00:19:19.378Z,3.93
2022-11-07T00:21:48.030Z,4.23
2022-11-07T00:24:17.972Z,3.97
2022-11-07T00:26:48.345Z,4.57
2022-11-07T00:29:17.780Z,4.20
2022-11-07T00:31:46.202Z,4.23
2022-11-07T00:34:14.975Z,4.20
2022-11-07T00:36:43.422Z,3.80
2022-11-07T00:39:12.142Z,3.53
2022-11-07T00:41:40.543Z,3.73
2022-11-07T00:44:09.970Z,3.83
2022-11-07T00:46:38.414Z,4.00
2022-11-07T00:49:06.765Z,4.27
2022-11-07T00:51:35.099Z,4.07
2022-11-07T00:54:04.132Z,4.03
2022-11-07T00:56:32.458Z,4.27
2022-11-07T00:59:01.297Z,4.00
2022-11-07T01:01:33.418Z,3.93
2022-11-07T01:04:19.307Z,3.90
2022-11-07T01:06:48.419Z,3.90
2022-11-07T01:09:19.118Z,3.87
2022-11-07T01:11:47.910Z,3.87
2022-11-07T01:14:18.114Z,4.20
2022-11-07T01:16:47.748Z,3.83
2022-11-07T01:19:16.303Z,3.90
2022-11-07T01:21:44.784Z,4.27
2022-11-07T01:24:14.589Z,3.90
2022-11-07T01:26:44.324Z,3.90
2022-11-07T01:29:12.390Z,3.60
2022-11-07T01:31:40.839Z,4.10
2022-11-07T01:34:10.448Z,3.60
2022-11-07T01:36:39.604Z,4.03
2022-11-07T01:39:07.968Z,4.27
2022-11-07T01:41:38.435Z,3.60
2022-11-07T01:44:45.103Z,3.40
2022-11-07T01:47:13.570Z,3.40
2022-11-07T01:49:44.359Z,3.47
2022-11-07T01:52:16.023Z,3.67
2022-11-07T01:54:49.901Z,4.97
2022-11-07T01:57:23.445Z,3.80
2022-11-07T01:59:54.183Z,3.53
2022-11-07T02:02:25.610Z,3.57
2022-11-07T02:04:55.872Z,4.23
2022-11-07T02:07:25.759Z,4.43
2022-11-07T02:09:54.969Z,3.73
2022-11-07T02:12:25.892Z,3.40
2022-11-07T02:14:54.436Z,3.93
2022-11-07T02:17:22.901Z,4.70
2022-11-07T02:19:52.883Z,3.77
2022-11-07T02:22:30.365Z,3.80
2022-11-07T02:25:01.602Z,4.07
2022-11-07T02:27:32.549Z,3.73
2022-11-07T02:30:04.311Z,3.67
2022-11-07T02:32:32.690Z,3.47
2022-11-07T02:35:02.209Z,3.73
2022-11-07T02:37:33.013Z,3.80
2022-11-07T02:40:06.824Z,3.93
2022-11-07T02:42:44.344Z,4.10
2022-11-07T02:45:15.125Z,3.67
2022-11-07T02:47:43.168Z,3.77
2022-11-07T02:50:13.267Z,3.53
2022-11-07T02:52:41.633Z,3.80
2022-11-07T02:55:12.542Z,3.30
2022-11-07T02:57:40.935Z,3.40
2022-11-07T03:00:12.392Z,3.83
2022-11-07T03:02:41.004Z,3.50
2022-11-07T03:05:09.706Z,3.43
2022-11-07T03:07:38.061Z,3.60
2022-11-07T03:10:07.114Z,3.93
2022-11-07T03:12:36.577Z,3.53
2022-11-07T03:15:05.555Z,3.80
2022-11-07T03:17:34.017Z,3.50
2022-11-07T03:20:02.528Z,3.30
2022-11-07T03:22:30.918Z,3.50
2022-11-07T03:24:59.299Z,3.70
2022-11-07T03:27:27.448Z,3.63
2022-11-07T03:29:57.053Z,3.47
2022-11-07T03:32:25.343Z,3.40
2022-11-07T03:34:53.678Z,3.83
2022-11-07T03:37:21.771Z,3.37
2022-11-07T03:39:50.152Z,3.40
2022-11-07T03:42:18.650Z,3.87
2022-11-07T03:44:47.047Z,3.87
2022-11-07T03:47:16.653Z,3.40
2022-11-07T03:49:45.053Z,3.40
2022-11-07T03:52:13.385Z,3.50
2022-11-07T03:54:41.728Z,3.33
2022-11-07T03:57:09.990Z,3.73
2022-11-07T03:59:38.437Z,4.00
2022-11-07T04:02:06.909Z,3.87
2022-11-07T04:04:36.444Z,3.43
2022-11-07T04:07:04.981Z,3.60
2022-11-07T04:09:33.459Z,3.87
2022-11-07T04:12:19.300Z,3.50
2022-11-07T04:15:05.541Z,4.03
2022-11-07T04:17:33.969Z,4.10
2022-11-07T04:20:03.416Z,4.07
2022-11-07T04:22:31.901Z,3.80
2022-11-07T04:25:00.211Z,4.13
2022-11-07T04:27:43.071Z,3.80
2022-11-07T04:30:20.377Z,3.73
2022-11-07T04:32:48.906Z,3.93
2022-11-07T04:35:19.435Z,4.33
2022-11-07T04:37:47.886Z,4.47
2022-11-07T04:40:17.313Z,3.77
2022-11-07T04:42:46.024Z,3.53
2022-11-07T04:45:14.419Z,3.80
2022-11-07T04:47:42.865Z,3.57
2022-11-07T04:50:12.816Z,3.97
2022-11-07T04:52:42.342Z,3.77
2022-11-07T04:55:17.296Z,4.17
2022-11-07T04:57:45.657Z,3.40
2022-11-07T05:00:14.840Z,3.37
2022-11-07T05:02:43.298Z,3.07
2022-11-07T05:05:12.142Z,3.83
2022-11-07T05:07:41.998Z,4.17
2022-11-07T05:10:18.563Z,3.23
2022-11-07T05:12:47.030Z,4.03
2022-11-07T05:15:15.437Z,3.67
2022-11-07T05:17:44.007Z,3.70
2022-11-07T05:20:26.899Z,3.30
2022-11-07T05:23:17.756Z,3.80
2022-11-07T05:25:48.395Z,3.40
2022-11-07T05:28:23.719Z,3.33
2022-11-07T05:30:59.808Z,3.23
2022-11-07T05:33:28.420Z,3.50
2022-11-07T05:35:56.816Z,3.30
2022-11-07T05:38:26.251Z,3.63
2022-11-07T05:40:54.623Z,3.63
2022-11-07T05:43:22.962Z,3.57
2022-11-07T05:45:52.491Z,3.73
2022-11-07T05:48:20.867Z,5.37
2022-11-07T05:50:49.252Z,3.30
2022-11-07T05:53:18.037Z,3.80
2022-11-07T05:55:48.106Z,3.30
2022-11-07T05:58:16.373Z,3.97
2022-11-07T06:00:44.726Z,3.73
2022-11-07T06:03:14.353Z,3.70
2022-11-07T06:05:44.173Z,4.03
2022-11-07T06:08:14.826Z,5.27
2022-11-07T06:10:44.049Z,3.80
2022-11-07T06:13:16.554Z,3.47
2022-11-07T06:15:46.505Z,3.43
2022-11-07T06:18:17.039Z,3.90
2022-11-07T06:20:45.372Z,3.70
2022-11-07T06:23:14.290Z,3.67
2022-11-07T06:25:42.768Z,4.40
2022-11-07T06:28:14.768Z,3.63
2022-11-07T06:30:43.492Z,3.57
2022-11-07T06:33:14.521Z,3.77
2022-11-07T06:35:43.138Z,3.90
2022-11-07T06:38:13.432Z,3.63
2022-11-07T06:40:42.678Z,3.37
2022-11-07T06:43:13.284Z,4.10
2022-11-07T06:45:43.395Z,3.70
2022-11-07T06:48:11.963Z,3.70
2022-11-07T06:50:40.477Z,3.47
2022-11-07T06:53:10.430Z,3.30
2022-11-07T06:55:39.457Z,3.83
2022-11-07T06:58:07.801Z,3.77
2022-11-07T07:00:37.610Z,3.73
2022-11-07T07:03:07.224Z,3.73
2022-11-07T07:05:35.813Z,3.57
2022-11-07T07:08:04.432Z,3.90
2022-11-07T07:10:32.963Z,4.10
2022-11-07T07:13:01.792Z,4.13
2022-11-07T07:15:42.093Z,4.03
2022-11-07T07:18:19.440Z,4.37
2022-11-07T07:20:47.858Z,4.13
2022-11-07T07:23:16.376Z,4.73
2022-11-07T07:25:44.652Z,4.37
2022-11-07T07:28:12.964Z,5.00
2022-11-07T07:30:41.071Z,4.77
2022-11-07T07:33:09.126Z,4.87
2022-11-07T07:35:38.516Z,4.73
2022-11-07T07:38:06.850Z,5.23
2022-11-07T07:40:35.173Z,5.17
2022-11-07T07:43:03.529Z,5.40
2022-11-07T07:45:31.798Z,4.87
2022-11-07T07:48:02.357Z,5.13
2022-11-07T07:50:30.728Z,4.73
2022-11-07T07:53:04.817Z,4.80
2022-11-07T07:55:36.640Z,4.40
2022-11-07T07:58:04.676Z,4.90
2022-11-07T08:00:33.148Z,4.20
2022-11-07T08:03:04.711Z,5.27
2022-11-07T08:05:33.024Z,4.57
2022-11-07T08:08:02.460Z,4.70
2022-11-07T08:10:46.163Z,5.80
2022-11-07T08:13:14.535Z,5.13
2022-11-07T08:15:42.995Z,5.07
2022-11-07T08:18:11.031Z,5.37
2022-11-07T08:20:39.337Z,5.27
2022-11-07T08:23:16.086Z,5.03
2022-11-07T08:25:44.881Z,5.07
2022-11-07T08:28:12.962Z,4.80
2022-11-07T08:30:41.296Z,4.90
2022-11-07T08:33:09.498Z,5.30
2022-11-07T08:35:42.293Z,5.63
2022-11-07T08:38:12.208Z,5.93
2022-11-07T08:40:40.557Z,5.70
2022-11-07T08:43:08.902Z,5.27
2022-11-07T08:45:36.955Z,5.53
2022-11-07T08:48:05.402Z,5.20
2022-11-07T08:50:33.450Z,5.40
2022-11-07T08:53:03.248Z,5.83
2022-11-07T08:55:32.990Z,5.80
2022-11-07T08:58:01.135Z,5.00
2022-11-07T09:00:30.204Z,5.70
2022-11-07T09:05:46.925Z,5.50
2022-11-07T09:08:14.971Z,5.83
2022-11-07T09:10:44.462Z,5.60
2022-11-07T09:13:14.984Z,5.97
2022-11-07T09:15:49.348Z,6.27
2022-11-07T09:18:19.299Z,5.63
2022-11-07T09:20:47.646Z,5.57
2022-11-07T09:23:16.509Z,5.73
2022-11-07T09:25:46.134Z,5.53
2022-11-07T09:28:14.576Z,5.20
2022-11-07T09:30:42.615Z,5.63
2022-11-07T09:33:11.035Z,5.87
2022-11-07T09:35:39.447Z,5.03
2022-11-07T09:38:07.487Z,5.70
2022-11-07T09:40:48.365Z,5.97
2022-11-07T09:43:33.973Z,5.50
2022-11-07T09:46:10.917Z,5.70
2022-11-07T09:48:44.675Z,5.63
2022-11-07T09:51:26.835Z,5.53
2022-11-07T09:54:00.557Z,5.73
2022-11-07T09:56:32.187Z,5.03
2022-11-07T09:59:11.076Z,5.47
2022-11-07T10:01:42.431Z,5.33
2022-11-07T10:04:25.278Z,6.00
2022-11-07T10:06:58.589Z,6.63
2022-11-07T10:09:36.113Z,5.40
2022-11-07T10:12:17.855Z,6.43
2022-11-07T10:14:58.954Z,5.20
2022-11-07T10:17:36.284Z,5.40
2022-11-07T10:20:24.492Z,5.63
2022-11-07T10:23:04.393Z,5.55
2022-11-07T10:25:41.478Z,5.70
2022-11-07T10:28:18.991Z,6.00
2022-11-07T10:30:49.708Z,5.43
2022-11-07T10:33:35.872Z,6.43
2022-11-07T10:36:09.151Z,5.57
2022-11-07T10:38:43.163Z,6.00
2022-11-07T10:41:19.564Z,6.00
2022-11-07T10:43:53.169Z,6.05
2022-11-07T10:46:25.508Z,5.93
2022-11-07T10:48:55.022Z,6.70
2022-11-07T10:51:23.338Z,7.30
2022-11-07T10:53:51.629Z,6.50
2022-11-07T10:56:20.867Z,5.55
2022-11-07T10:58:50.368Z,6.43
2022-11-07T11:01:25.293Z,6.25
2022-11-07T11:03:54.066Z,6.13
2022-11-07T11:06:25.507Z,6.87
2022-11-07T11:08:54.127Z,6.73
2022-11-07T11:11:32.241Z,6.93
2022-11-07T11:14:06.869Z,6.20
2022-11-07T11:16:38.662Z,6.35
2022-11-07T11:19:17.313Z,6.13
2022-11-07T11:21:47.035Z,6.13
2022-11-07T11:24:24.007Z,5.83
2022-11-07T11:26:53.747Z,6.20
2022-11-07T11:29:35.390Z,6.27
2022-11-07T11:32:06.850Z,6.70
2022-11-07T11:34:45.903Z,6.70
2022-11-07T11:37:19.763Z,6.53
2022-11-07T11:39:52.762Z,6.40
2022-11-07T11:42:33.183Z,6.37
2022-11-07T11:45:16.288Z,7.47
2022-11-07T11:47:48.810Z,7.17
2022-11-07T11:50:21.898Z,6.77
2022-11-07T11:52:50.413Z,7.73
2022-11-07T11:55:21.665Z,7.80
2022-11-07T11:58:02.264Z,7.47
2022-11-07T12:00:37.258Z,7.90
2022-11-07T12:03:30.449Z,7.47
2022-11-07T12:06:17.089Z,7.10
2022-11-07T12:09:07.587Z,6.07
2022-11-07T12:11:44.514Z,7.05
2022-11-07T12:14:45.051Z,6.63
2022-11-07T12:17:22.123Z,6.87
2022-11-07T12:19:59.321Z,7.67
2022-11-07T12:22:39.344Z,7.47
2022-11-07T12:25:16.081Z,7.47
2022-11-07T12:27:53.498Z,7.93
2022-11-07T12:30:25.705Z,7.68
2022-11-07T12:33:05.439Z,6.67
2022-11-07T12:35:46.058Z,7.07
2022-11-07T12:38:40.104Z,7.00
2022-11-07T12:41:20.334Z,7.20
2022-11-07T12:44:00.720Z,7.72
2022-11-07T12:46:43.388Z,7.23
2022-11-07T12:49:39.455Z,7.47
2022-11-07T12:52:19.136Z,7.53
2022-11-07T12:54:52.938Z,7.03
2022-11-07T12:57:23.681Z,7.22
2022-11-07T12:59:57.920Z,7.55
2022-11-07T13:02:38.506Z,6.80
2022-11-07T13:05:19.379Z,6.72
2022-11-07T13:07:55.221Z,7.35
2022-11-07T13:10:27.584Z,6.95
2022-11-07T13:13:01.419Z,7.73
2022-11-07T13:15:37.933Z,6.83
2022-11-07T13:18:21.137Z,7.25
2022-11-07T13:21:00.407Z,7.13
2022-11-07T13:23:29.999Z,7.82
2022-11-07T13:26:14.789Z,8.35
2022-11-07T13:28:58.713Z,7.50
2022-11-07T13:31:36.181Z,6.88
2022-11-07T13:34:26.288Z,7.13
2022-11-07T13:37:02.341Z,7.32
2022-11-07T13:39:31.766Z,6.40
2022-11-07T13:42:01.633Z,7.25
2022-11-07T13:44:34.821Z,6.72
2022-11-07T13:47:05.659Z,7.40
2022-11-07T13:49:43.998Z,6.13
2022-11-07T13:52:19.646Z,7.05
2022-11-07T13:54:54.949Z,6.10
2022-11-07T13:57:28.274Z,6.97
2022-11-07T13:59:59.422Z,6.43
2022-11-07T14:02:29.491Z,6.50
2022-11-07T14:05:18.439Z,6.73
2022-11-07T14:07:54.103Z,6.55
2022-11-07T14:10:29.946Z,6.25
2022-11-07T14:13:11.694Z,6.60
2022-11-07T14:15:47.719Z,6.65
2022-11-07T14:18:17.052Z,6.20
2022-11-07T14:20:48.833Z,6.40
2022-11-07T14:23:21.960Z,6.50
2022-11-07T14:25:57.693Z,7.47
2022-11-07T14:28:26.135Z,6.03
2022-11-07T14:30:54.564Z,5.93
2022-11-07T14:33:23.627Z,6.95
2022-11-07T14:35:53.423Z,6.50
2022-11-07T14:38:25.963Z,6.20
2022-11-07T14:40:59.703Z,5.63
2022-11-07T14:43:29.511Z,7.30
2022-11-07T14:46:17.610Z,6.88
2022-11-07T14:48:49.617Z,5.97
2022-11-07T14:51:22.441Z,5.97
2022-11-07T14:53:56.805Z,6.50
2022-11-07T14:56:29.677Z,6.15
2022-11-07T14:58:58.727Z,6.27
2022-11-07T15:01:30.927Z,6.10
2022-11-07T15:04:02.483Z,5.90
2022-11-07T15:06:34.505Z,5.50
2022-11-07T15:09:06.252Z,5.97
2022-11-07T15:11:36.716Z,6.03
2022-11-07T15:14:06.789Z,6.40
2022-11-07T15:16:38.992Z,5.97
2022-11-07T15:19:11.034Z,6.77
2022-11-07T15:21:52.243Z,6.57
2022-11-07T15:24:36.855Z,6.43
2022-11-07T15:27:07.223Z,5.77
2022-11-07T15:29:37.058Z,5.63
2022-11-07T15:32:07.808Z,6.47
2022-11-07T15:34:58.619Z,6.20
2022-11-07T15:37:26.381Z,6.13
2022-11-07T15:39:55.982Z,5.83
2022-11-07T15:42:24.056Z,5.60
2022-11-07T15:44:52.076Z,6.10
2022-11-07T15:47:23.335Z,5.47
2022-11-07T15:49:51.415Z,6.23
2022-11-07T15:52:19.591Z,5.83
2022-11-07T15:54:47.763Z,6.20
2022-11-07T15:57:17.366Z,6.30
2022-11-07T15:59:45.514Z,6.20
2022-11-07T16:02:17.314Z,5.80
2022-11-07T16:04:45.506Z,5.77
2022-11-07T16:07:17.948Z,6.23
2022-11-07T16:09:48.553Z,5.60
2022-11-07T16:12:19.734Z,6.67
2022-11-07T16:14:48.282Z,6.43
2022-11-07T16:17:18.024Z,5.77
2022-11-07T16:19:46.294Z,5.90
2022-11-07T16:22:15.824Z,6.57
2022-11-07T16:24:44.057Z,5.90
2022-11-07T16:27:18.765Z,6.10
2022-11-07T16:29:47.183Z,5.73
2022-11-07T16:32:18.278Z,6.17
2022-11-07T16:34:47.655Z,5.77
2022-11-07T16:37:15.810Z,6.03
2022-11-07T16:39:44.415Z,5.90
2022-11-07T16:42:16.301Z,6.07
2022-11-07T16:44:45.806Z,6.25
2022-11-07T16:47:15.901Z,6.27
2022-11-07T16:49:44.325Z,6.43
2022-11-07T16:52:14.778Z,5.87
2022-11-07T16:54:43.247Z,6.33
2022-11-07T16:57:13.870Z,5.57
2022-11-07T16:59:42.242Z,5.83
2022-11-07T17:02:20.669Z,6.23
2022-11-07T17:04:50.479Z,6.23
2022-11-07T17:07:19.543Z,5.50
2022-11-07T17:09:47.880Z,5.93
2022-11-07T17:12:17.824Z,6.07
2022-11-07T17:14:46.236Z,6.23
2022-11-07T17:17:17.624Z,6.17
2022-11-07T17:19:46.109Z,5.50
2022-11-07T17:22:14.774Z,6.13
2022-11-07T17:24:43.581Z,6.40
2022-11-07T17:27:21.624Z,6.00
2022-11-07T17:29:50.668Z,6.23
2022-11-07T17:32:20.603Z,6.20
2022-11-07T17:35:10.591Z,6.97
2022-11-07T17:37:37.882Z,5.65
2022-11-07T17:40:07.127Z,6.70
2022-11-07T17:42:38.185Z,6.63
2022-11-07T17:45:07.891Z,5.17
2022-11-07T17:47:37.483Z,5.53
2022-11-07T17:50:06.300Z,6.20
2022-11-07T17:52:34.329Z,5.93
2022-11-07T17:55:02.363Z,5.93
2022-11-07T17:57:30.687Z,5.83
2022-11-07T17:59:59.051Z,6.03
2022-11-07T18:02:27.616Z,5.47
2022-11-07T18:04:57.287Z,6.00
2022-11-07T18:07:25.642Z,5.73
2022-11-07T18:09:54.814Z,5.17
2022-11-07T18:12:23.386Z,6.17
2022-11-07T18:14:51.682Z,6.00
2022-11-07T18:17:20.818Z,6.13
2022-11-07T18:19:49.229Z,6.87
2022-11-07T18:22:18.653Z,4.90
2022-11-07T18:24:47.418Z,6.47
2022-11-07T18:27:15.833Z,6.13
2022-11-07T18:29:44.172Z,6.03
2022-11-07T18:32:12.218Z,6.03
2022-11-07T18:34:40.328Z,5.73
2022-11-07T18:37:08.324Z,5.82
2022-11-07T18:39:37.717Z,5.53
2022-11-07T18:42:07.048Z,5.87
2022-11-07T18:44:35.395Z,6.67
2022-11-07T18:47:03.908Z,6.50
2022-11-07T18:49:32.386Z,6.87
2022-11-07T18:52:00.413Z,6.13
2022-11-07T18:54:29.911Z,5.80
2022-11-07T18:56:59.289Z,5.80
2022-11-07T18:59:27.824Z,6.23
2022-11-07T19:01:55.939Z,6.30
2022-11-07T19:04:24.293Z,6.10
2022-11-07T19:06:58.464Z,5.50
2022-11-07T19:09:28.864Z,6.03
2022-11-07T19:11:57.450Z,5.73
2022-11-07T19:14:27.791Z,6.17
2022-11-07T19:16:56.184Z,6.00
2022-11-07T19:19:24.596Z,6.27
2022-11-07T19:21:53.020Z,6.38
2022-11-07T19:24:21.426Z,5.93
2022-11-07T19:26:49.427Z,5.97
2022-11-07T19:29:18.184Z,5.90
2022-11-07T19:31:47.708Z,6.32
2022-11-07T19:34:17.998Z,5.77
2022-11-07T19:36:46.351Z,6.23
2022-11-07T19:39:14.614Z,6.07
2022-11-07T19:41:42.920Z,6.03
2022-11-07T19:44:11.105Z,5.87
2022-11-07T19:46:39.234Z,6.03
2022-11-07T19:49:08.855Z,6.80
2022-11-07T19:51:37.368Z,5.87
2022-11-07T19:54:07.588Z,6.95
2022-11-07T19:56:35.585Z,6.07
2022-11-07T19:59:04.019Z,5.90
2022-11-07T20:01:35.217Z,6.47
2022-11-07T20:04:03.961Z,6.20
2022-11-07T20:06:37.048Z,5.68
2022-11-07T20:09:07.062Z,6.00
2022-11-07T20:11:35.461Z,5.45
2022-11-07T20:14:04.347Z,5.53
2022-11-07T20:16:32.956Z,5.65
2022-11-07T20:19:01.791Z,6.95
2022-11-07T20:21:30.718Z,6.70
2022-11-07T20:24:00.398Z,6.57
2022-11-07T20:26:31.455Z,6.40
2022-11-07T20:29:00.259Z,6.07
2022-11-07T20:31:29.970Z,5.90
2022-11-07T20:33:59.480Z,5.47
2022-11-07T20:36:27.854Z,6.17
2022-11-07T20:38:56.644Z,7.10
2022-11-07T20:41:27.251Z,6.13
2022-11-07T20:43:55.688Z,6.60
2022-11-07T20:46:24.240Z,6.30
2022-11-07T20:48:53.512Z,6.30
2022-11-07T20:51:26.213Z,6.03
2022-11-07T20:53:55.133Z,6.90
2022-11-07T20:56:25.609Z,7.47
2022-11-07T20:58:54.188Z,6.73
2022-11-07T21:01:24.415Z,7.50
2022-11-07T21:03:53.232Z,6.27
2022-11-07T21:06:21.949Z,6.93
2022-11-07T21:08:50.684Z,6.65
2022-11-07T21:11:19.088Z,6.53
2022-11-07T21:13:53.011Z,6.77
2022-11-07T21:16:22.333Z,7.45
2022-11-07T21:18:51.209Z,6.87
2022-11-07T21:21:22.275Z,6.87
2022-11-07T21:23:51.658Z,6.27
2022-11-07T21:26:22.381Z,6.43
2022-11-07T21:28:52.029Z,6.00
2022-11-07T21:31:23.985Z,6.30
2022-11-07T21:33:52.556Z,6.37
2022-11-07T21:36:22.231Z,5.30
2022-11-07T21:38:50.547Z,5.77
2022-11-07T21:41:19.551Z,6.33
2022-11-07T21:43:47.743Z,5.53
2022-11-07T21:46:18.905Z,5.40
2022-11-07T21:48:47.428Z,6.00
2022-11-07T21:51:17.790Z,5.60
2022-11-07T21:53:46.607Z,5.70
2022-11-07T21:56:16.666Z,5.57
2022-11-07T21:58:45.479Z,6.00
2022-11-07T22:01:13.525Z,5.60
2022-11-07T22:04:05.543Z,5.53
2022-11-07T22:06:34.013Z,5.67
2022-11-07T22:09:02.518Z,5.07
2022-11-07T22:11:30.596Z,5.87
2022-11-07T22:13:58.981Z,6.20
2022-11-07T22:16:27.147Z,5.40
2022-11-07T22:18:56.781Z,6.43
2022-11-07T22:21:25.041Z,5.33
2022-11-07T22:23:53.468Z,6.37
2022-11-07T22:26:23.323Z,6.30
2022-11-07T22:28:51.783Z,6.40
2022-11-07T22:31:22.742Z,5.53
2022-11-07T22:33:52.605Z,5.87
2022-11-07T22:36:22.508Z,7.07
2022-11-07T22:38:51.128Z,6.10
2022-11-07T22:41:21.413Z,5.67
2022-11-07T22:43:50.207Z,5.47
2022-11-07T22:46:20.533Z,5.83
2022-11-07T22:48:49.675Z,6.07
2022-11-07T22:51:20.907Z,6.80
2022-11-07T22:53:56.217Z,6.20
2022-11-07T22:56:24.488Z,5.23
2022-11-07T22:58:52.564Z,6.10
2022-11-07T23:01:23.433Z,6.90
2022-11-07T23:03:52.347Z,6.70
2022-11-07T23:06:20.909Z,5.73
2022-11-07T23:08:51.014Z,6.30
2022-11-07T23:14:11.962Z,6.20
2022-11-07T23:16:41.906Z,5.77
2022-11-07T23:19:14.079Z,5.50
2022-11-07T23:21:42.896Z,4.63
2022-11-07T23:24:12.817Z,5.43
2022-11-07T23:26:41.455Z,5.40
2022-11-07T23:29:13.256Z,5.47
2022-11-07T23:31:42.349Z,6.30
2022-11-07T23:34:10.770Z,5.70
2022-11-07T23:36:40.840Z,5.90
2022-11-07T23:39:09.788Z,5.10
2022-11-07T23:41:39.247Z,5.23
2022-11-07T23:44:07.679Z,5.60
2022-11-07T23:46:53.868Z,5.30
2022-11-07T23:49:45.472Z,5.17
2022-11-07T23:52:13.563Z,5.20
2022-11-07T23:54:59.828Z,5.43
2022-11-07T23:57:29.271Z,6.23
